LSZB 210220Z AUTO VRB01KT 0150 R14/0150N FG VV000 10/10 Q1023 LSZB 210150Z AUTO VRB01KT 0100 R14/0100N FG VV000 10/10 Q1023 LSZB 210120Z AUTO VRB01KT 0150 R14/0075N FG VV001 10/10 Q1023 LSZB 210050Z AUTO VRB01KT 0250 R14/0350N FG VV001 11/10 Q1023 LSZB 210020Z AUTO VRB02KT 0100 R14/0125N FG VV000 10/10 Q1023 LSZB 202350Z AUTO VRB01KT 0400 R14/0275U FG VV001 10/10 Q1023 LSZB 202320Z AUTO VRB02KT 0350 R14/0325D FG VV001 10/10 Q1023 LSZB 202250Z AUTO VRB01KT 0350 R14/0150D FG VV001 09/09 Q1023 LSZB 202220Z AUTO VRB01KT 0200 R14/0250D FG VV001 10/09 Q1022 LSZB 202150Z AUTO VRB02KT 9000 FG FEW036 11/11 Q1022 LSZB 202120Z AUTO 29001KT 8000 R14/0450U FG BKN037 12/11 Q1022 LSZB 202050Z AUTO VRB01KT 4700 BR BKN037 12/11 Q1022 LSZB 202020Z AUTO VRB01KT 9000 BKN019 12/12 Q1022 LSZB 201950Z AUTO VRB01KT 8000 SCT015 BKN017 12/12 Q1022 LSZB 201920Z AUTO 26002KT 9999 BKN015 12/12 Q1021 LSZB 201850Z 00000KT 9999 FEW010 BKN100 12/12 Q1021 NOSIG LSZB 201820Z VRB02KT 9999 FEW010 BKN100 13/12 Q1021 NOSIG LSZB 201750Z VRB01KT 9999 FEW010 BKN100 13/12 Q1020 NOSIG LSZB 201720Z 25002KT 9999 FEW010 BKN100 14/12 Q1020 NOSIG LSZB 201650Z 26003KT 9999 FEW024 BKN095 14/12 Q1020 NOSIG LSZB 201620Z 27003KT 9999 FEW016 SCT027 BKN110 14/12 Q1019 NOSIG LSZB 201550Z 29003KT 9999 FEW013 SCT085 OVC095 14/11 Q1019 NOSIG LSZB 201520Z 29003KT 9999 FEW018 SCT095 BKN100 14/11 Q1019 NOSIG LSZB 201450Z VRB03KT 9999 -RA FEW015 BKN080 OVC090 14/11 Q1019 NOSIG LSZB 201420Z VRB03KT 9999 -RA FEW015 SCT055 BKN070 14/11 Q1019 NOSIG LSZB 201350Z 28004KT 9999 -RA FEW044 BKN070 14/11 Q1019 NOSIG LSZB 201320Z 26004KT 9999 -RA FEW013 SCT055 BKN070 14/12 Q1019 NOSIG LSZB 201250Z 26004KT 9999 -RA FEW012 SCT065 OVC075 14/12 Q1019 NOSIG LSZB 201220Z VRB03KT 9999 -RA FEW013 SCT070 OVC080 14/11 Q1019 NOSIG LSZB 201150Z 23003KT 9999 -RA FEW012 BKN070 14/11 Q1019 NOSIG LSZB 201120Z VRB03KT 9999 -RA FEW009 SCT070 BKN090 14/10 Q1018 NOSIG LSZB 201050Z VRB02KT 9999 -RA FEW009 SCT070 OVC080 14/11 Q1018 NOSIG LSZB 201020Z VRB02KT 9999 -RA FEW060 SCT070 BKN080 13/11 Q1019 NOSIG LSZB 200950Z VRB02KT 9999 -RA FEW023 SCT065 BKN075 13/10 Q1019 NOSIG LSZB 200920Z VRB02KT 9999 -RA SCT009 SCT075 BKN085 13/11 Q1019 NOSIG LSZB 200850Z VRB02KT 9999 -RA SCT008 SCT065 BKN085 13/11 Q1019 NOSIG LSZB 200820Z VRB03KT 9999 FEW006 SCT060 BKN075 13/11 Q1018 NOSIG LSZB 200750Z 13002KT 9999 FEW060 BKN075 12/11 Q1018 NOSIG LSZB 200720Z 11002KT 9999 FEW008 SCT070 BKN100 12/11 Q1018 NOSIG LSZB 200650Z VRB02KT 9999 DZ FEW020 SCT070 BKN080 11/11 Q1018 NOSIG LSZB 200620Z AUTO 14002KT 9999 -RA SCT020 BKN023 11/11 Q1018 LSZB 200550Z 05003KT 9999 -RA FEW019 SCT022 BKN025 11/10 Q1018 NOSIG LSZB 200520Z 10004KT 9999 SCT018 BKN070 11/10 Q1018 NOSIG LSZB 200450Z 06004KT 9999 BKN018 BKN019 OVC070 11/10 Q1018 LSZB 200420Z AUTO 07005KT 9999 FEW070 BKN080 BKN090 11/10 Q1018 LSZB 200350Z AUTO 07003KT 9999 FEW021 BKN050 OVC080 11/10 Q1018 LSZB 200320Z AUTO 07003KT 9999 FEW023 SCT080 OVC090 11/10 Q1018 LSZB 200250Z AUTO 06003KT 9999 BKN080 10/10 Q1018 LSZB 200220Z AUTO 07004KT 9999 FEW024 OVC075 11/10 Q1018 LSZB 200150Z AUTO 07003KT 9999 FEW023 OVC070 11/10 Q1018 LSZB 200120Z AUTO 08004KT 9999 SCT022 SCT026 OVC070 11/10 Q1018 LSZB 200050Z AUTO 07005KT 9999 OVC022 11/10 Q1018 LSZB 200020Z AUTO 06004KT 9999 BKN075 BKN100 11/10 Q1018 LSZB 192350Z AUTO 05004KT 9999 FEW024 OVC042 11/10 Q1018 LSZB 192320Z AUTO 05004KT 9999 FEW075 OVC100 10/09 Q1018 LSZB 192250Z AUTO 08003KT 9999 FEW033 OVC037 11/10 Q1018 LSZB 192220Z AUTO 05003KT 9999 SCT033 BKN037 BKN042 11/10 Q1018 LSZB 192150Z AUTO 06004KT 9999 FEW042 SCT055 BKN065 11/09 Q1018 LSZB 192120Z AUTO 06004KT 010V090 9999 FEW027 BKN045 BKN050 11/10 Q1018 LSZB 192050Z AUTO 07003KT 040V140 9999 SCT030 BKN037 11/10 Q1018 LSZB 192020Z AUTO 08003KT 9999 BKN043 11/10 Q1018 LSZB 191950Z AUTO 10004KT 050V140 9999 FEW037 SCT041 BKN046 11/09 Q1018 LSZB 191920Z AUTO 08004KT 040V120 9999 BKN042 11/10 Q1018 LSZB 191850Z 09005KT 9999 DZ FEW023 SCT034 BKN038 11/09 Q1017 LSZB 191820Z 08004KT 9999 -RA FEW023 SCT037 BKN047 11/09 Q1017 LSZB 191750Z 06004KT 040V120 9999 -RA FEW029 BKN032 11/09 Q1017 LSZB 191720Z 12005KT 9999 +DZ OVC020 11/09 Q1017 LSZB 191650Z 12007KT 9999 -RA OVC020 11/09 Q1017 LSZB 191620Z 10007KT 9999 -DZ OVC028 11/09 Q1017 LSZB 191550Z 11009KT 9999 -RA FEW004 BKN037 BKN080 11/09 Q1017 LSZB 191520Z 13009KT 9999 -RA FEW004 SCT025 BKN041 11/09 Q1017 LSZB 191450Z 13011KT 9999 -DZ BKN047 BKN065 12/09 Q1016

METAR Messwerte

Zurück zur Übersicht

Ort
m ü. NN
Zeit Temperatur Taupunkt Rel.
Luftfeuchte
Luftdruck:
Altimeter
NN
Station
Wind in Beaufort
(Knoten)
Sichtweite
(Meter)
Wolken
(Meter über Grund)
Wettererscheinung
Bern/Belp
505
Di 21.09. 04:201010100 %1023
1024
963
Uml 1 (1)150 Nebel
Bern/Belp
505
Di 21.09. 03:501010100 %1023
1024
963
Uml 1 (1)100 Nebel
Bern/Belp
505
Di 21.09. 03:201010100 %1023
1024
963
Uml 1 (1)150 Nebel
Bern/Belp
505
Di 21.09. 02:50111094 %1023
1024
963
Uml 1 (1)250 Nebel
Bern/Belp
505
Di 21.09. 02:201010100 %1023
1024
963
Uml 1 (2)100 Nebel
Bern/Belp
505
Di 21.09. 01:501010100 %1023
1024
963
Uml 1 (1)400 Nebel
Bern/Belp
505
Di 21.09. 01:201010100 %1023
1024
963
Uml 1 (2)350 Nebel
Bern/Belp
505
Di 21.09. 00:5099100 %1023
1024
963
Uml 1 (1)350 Nebel
Bern/Belp
505
Di 21.09. 00:2010993 %1022
1023
962
Uml 1 (1)200 Nebel
Bern/Belp
505
Mo 20.09. 23:501111100 %1022
1023
962
Uml 1 (2)9000Leicht bewölkt (1100)Nebel
Bern/Belp
505
Mo 20.09. 23:20121194 %1022
1023
962
WNW 1 (1)8000Stark bewölkt (1100)Nebel
Bern/Belp
505
Mo 20.09. 22:50121194 %1022
1023
962
Uml 1 (1)4700Stark bewölkt (1100)Nebeldunst
Bern/Belp
505
Mo 20.09. 22:201212100 %1022
1023
962
Uml 1 (1)9000Stark bewölkt (580) 
Bern/Belp
505
Mo 20.09. 21:501212100 %1022
1023
962
Uml 1 (1)8000Stark bewölkt (520)
Wolkig (460)
 
Bern/Belp
505
Mo 20.09. 21:201212100 %1021
1022
961
W 1 (2)>= 10000Stark bewölkt (460) 
Bern/Belp
505
Mo 20.09. 20:501212100 %1021
1022
961
Windstill>= 10000Stark bewölkt (3000)
Leicht bewölkt (300)
 
Bern/Belp
505
Mo 20.09. 20:20131294 %1021
1022
961
Uml 1 (2)>= 10000Stark bewölkt (3000)
Leicht bewölkt (300)
 
Bern/Belp
505
Mo 20.09. 19:50131294 %1020
1021
960
Uml 1 (1)>= 10000Stark bewölkt (3000)
Leicht bewölkt (300)
 
Bern/Belp
505
Mo 20.09. 19:20141288 %1020
1020
960
WSW 1 (2)>= 10000Stark bewölkt (3000)
Leicht bewölkt (300)
 
Bern/Belp
505
Mo 20.09. 18:50141288 %1020
1020
960
W 2 (3)>= 10000Stark bewölkt (2900)
Leicht bewölkt (730)
 
Bern/Belp
505
Mo 20.09. 18:20141288 %1019
1019
960
W 2 (3)>= 10000Stark bewölkt (3400)
Wolkig (820)
Leicht bewölkt (490)
 
Bern/Belp
505
Mo 20.09. 17:50141182 %1019
1019
960
WNW 2 (3)>= 10000Bedeckt (2900)
Wolkig (2600)
Leicht bewölkt (400)
 
Bern/Belp
505
Mo 20.09. 17:20141182 %1019
1019
960
WNW 2 (3)>= 10000Stark bewölkt (3000)
Wolkig (2900)
Leicht bewölkt (550)
 
Bern/Belp
505
Mo 20.09. 16:50141182 %1019
1019
960
Uml 2 (3)>= 10000Bedeckt (2700)
Stark bewölkt (2400)
Leicht bewölkt (460)
Regen (schwach)
Bern/Belp
505
Mo 20.09. 16:20141182 %1019
1019
960
Uml 2 (3)>= 10000Stark bewölkt (2100)
Wolkig (1700)
Leicht bewölkt (460)
Regen (schwach)
Bern/Belp
505
Mo 20.09. 15:50141182 %1019
1019
960
W 2 (4)>= 10000Stark bewölkt (2100)
Leicht bewölkt (1300)
Regen (schwach)
Bern/Belp
505
Mo 20.09. 15:20141288 %1019
1019
960
W 2 (4)>= 10000Stark bewölkt (2100)
Wolkig (1700)
Leicht bewölkt (400)
Regen (schwach)
Bern/Belp
505
Mo 20.09. 14:50141288 %1019
1019
960
W 2 (4)>= 10000Bedeckt (2300)
Wolkig (2000)
Leicht bewölkt (370)
Regen (schwach)
Bern/Belp
505
Mo 20.09. 14:20141182 %1019
1019
960
Uml 2 (3)>= 10000Bedeckt (2400)
Wolkig (2100)
Leicht bewölkt (400)
Regen (schwach)
Bern/Belp
505
Mo 20.09. 13:50141182 %1019
1019
960
SW 2 (3)>= 10000Stark bewölkt (2100)
Leicht bewölkt (370)
Regen (schwach)
Bern/Belp
505
Mo 20.09. 13:20141077 %1018
1018
959
Uml 2 (3)>= 10000Stark bewölkt (2700)
Wolkig (2100)
Leicht bewölkt (270)
Regen (schwach)
Bern/Belp
505
Mo 20.09. 12:50141182 %1018
1018
959
Uml 1 (2)>= 10000Bedeckt (2400)
Wolkig (2100)
Leicht bewölkt (270)
Regen (schwach)
Bern/Belp
505
Mo 20.09. 12:20131188 %1019
1020
960
Uml 1 (2)>= 10000Stark bewölkt (2400)
Wolkig (2100)
Leicht bewölkt (1800)
Regen (schwach)
Bern/Belp
505
Mo 20.09. 11:50131082 %1019
1020
960
Uml 1 (2)>= 10000Stark bewölkt (2300)
Wolkig (2000)
Leicht bewölkt (700)
Regen (schwach)
Bern/Belp
505
Mo 20.09. 11:20131188 %1019
1020
960
Uml 1 (2)>= 10000Stark bewölkt (2600)
Wolkig (2300)
Wolkig (270)
Regen (schwach)
Bern/Belp
505
Mo 20.09. 10:50131188 %1019
1020
960
Uml 1 (2)>= 10000Stark bewölkt (2600)
Wolkig (2000)
Wolkig (240)
Regen (schwach)
Bern/Belp
505
Mo 20.09. 10:20131188 %1018
1018
959
Uml 2 (3)>= 10000Stark bewölkt (2300)
Wolkig (1800)
Leicht bewölkt (180)
 
Bern/Belp
505
Mo 20.09. 09:50121194 %1018
1019
959
SO 1 (2)>= 10000Stark bewölkt (2300)
Leicht bewölkt (1800)
 
Bern/Belp
505
Mo 20.09. 09:20121194 %1018
1019
959
OSO 1 (2)>= 10000Stark bewölkt (3000)
Wolkig (2100)
Leicht bewölkt (240)
 
Bern/Belp
505
Mo 20.09. 08:501111100 %1018
1019
959
Uml 1 (2)>= 10000Stark bewölkt (2400)
Wolkig (2100)
Leicht bewölkt (610)
Nieselregen
Bern/Belp
505
Mo 20.09. 08:201111100 %1018
1019
959
SO 1 (2)>= 10000Stark bewölkt (700)
Wolkig (610)
Regen (schwach)
Bern/Belp
505
Mo 20.09. 07:50111094 %1018
1019
959
NO 2 (3)>= 10000Stark bewölkt (760)
Wolkig (670)
Leicht bewölkt (580)
Regen (schwach)
Bern/Belp
505
Mo 20.09. 07:20111094 %1018
1019
959
O 2 (4)>= 10000Stark bewölkt (2100)
Wolkig (550)
 
Bern/Belp
505
Mo 20.09. 06:50111094 %1018
1019
959
ONO 2 (4)>= 10000Bedeckt (2100)
Stark bewölkt (580)
Stark bewölkt (550)
 
Bern/Belp
505
Mo 20.09. 06:20111094 %1018
1019
959
ONO 2 (5)>= 10000Stark bewölkt (2700)
Stark bewölkt (2400)
Leicht bewölkt (2100)
 
Bern/Belp
505
Mo 20.09. 05:50111094 %1018
1019
959
ONO 2 (3)>= 10000Bedeckt (2400)
Stark bewölkt (1500)
Leicht bewölkt (640)
 
Bern/Belp
505
Mo 20.09. 05:20111094 %1018
1019
959
ONO 2 (3)>= 10000Bedeckt (2700)
Wolkig (2400)
Leicht bewölkt (700)
 
Bern/Belp
505
Mo 20.09. 04:501010100 %1018
1019
959
ONO 2 (3)>= 10000Stark bewölkt (2400) 
Bern/Belp
505
Mo 20.09. 04:20111094 %1018
1019
959
ONO 2 (4)>= 10000Bedeckt (2300)
Leicht bewölkt (730)
 
Bern/Belp
505
Mo 20.09. 03:50111094 %1018
1019
959
ONO 2 (3)>= 10000Bedeckt (2100)
Leicht bewölkt (700)
 
Bern/Belp
505
Mo 20.09. 03:20111094 %1018
1019
959
O 2 (4)>= 10000Bedeckt (2100)
Wolkig (790)
Wolkig (670)
 
Bern/Belp
505
Mo 20.09. 02:50111094 %1018
1019
959
ONO 2 (5)>= 10000Bedeckt (670) 
Bern/Belp
505
Mo 20.09. 02:20111094 %1018
1019
959
ONO 2 (4)>= 10000Stark bewölkt (3000)
Stark bewölkt (2300)
 
Bern/Belp
505
Mo 20.09. 01:50111094 %1018
1019
959
NO 2 (4)>= 10000Bedeckt (1300)
Leicht bewölkt (730)
 
Bern/Belp
505
Mo 20.09. 01:2010993 %1018
1019
959
NO 2 (4)>= 10000Bedeckt (3000)
Leicht bewölkt (2300)
 
Bern/Belp
505
Mo 20.09. 00:50111094 %1018
1019
959
O 2 (3)>= 10000Bedeckt (1100)
Leicht bewölkt (1000)
 
Bern/Belp
505
Mo 20.09. 00:20111094 %1018
1019
959
NO 2 (3)>= 10000Stark bewölkt (1300)
Stark bewölkt (1100)
Wolkig (1000)
 
Bern/Belp
505
So 19.09. 23:5011987 %1018
1019
959
ONO 2 (4)>= 10000Stark bewölkt (2000)
Wolkig (1700)
Leicht bewölkt (1300)
 
Bern/Belp
505
So 19.09. 23:20111094 %1018
1019
959
ONO 2 (4)
N - O
>= 10000Stark bewölkt (1500)
Stark bewölkt (1400)
Leicht bewölkt (820)
 
Bern/Belp
505
So 19.09. 22:50111094 %1018
1019
959
ONO 2 (3)
NO - SO
>= 10000Stark bewölkt (1100)
Wolkig (910)
 
Bern/Belp
505
So 19.09. 22:20111094 %1018
1019
959
O 2 (3)>= 10000Stark bewölkt (1300) 
Bern/Belp
505
So 19.09. 21:5011987 %1018
1019
959
O 2 (4)
NO - SO
>= 10000Stark bewölkt (1400)
Wolkig (1200)
Leicht bewölkt (1100)
 
Bern/Belp
505
So 19.09. 21:20111094 %1018
1019
959
O 2 (4)
NO - OSO
>= 10000Stark bewölkt (1300) 
Bern/Belp
505
So 19.09. 20:5011987 %1017
1018
958
O 2 (5)>= 10000Stark bewölkt (1200)
Wolkig (1000)
Leicht bewölkt (700)
Nieselregen
Bern/Belp
505
So 19.09. 20:2011987 %1017
1018
958
O 2 (4)>= 10000Stark bewölkt (1400)
Wolkig (1100)
Leicht bewölkt (700)
Regen (schwach)
Bern/Belp
505
So 19.09. 19:5011987 %1017
1018
958
ONO 2 (4)
NO - OSO
>= 10000Stark bewölkt (980)
Leicht bewölkt (880)
Regen (schwach)
Bern/Belp
505
So 19.09. 19:2011987 %1017
1018
958
OSO 2 (5)>= 10000Bedeckt (610)Nieselregen (stark)
Bern/Belp
505
So 19.09. 18:5011987 %1017
1018
958
OSO 3 (7)>= 10000Bedeckt (610)Regen (schwach)
Bern/Belp
505
So 19.09. 18:2011987 %1017
1018
958
O 3 (7)>= 10000Bedeckt (850)Nieselregen (schwach)
Bern/Belp
505
So 19.09. 17:5011987 %1017
1018
958
OSO 3 (9)>= 10000Stark bewölkt (2400)
Stark bewölkt (1100)
Leicht bewölkt (120)
Regen (schwach)
Bern/Belp
505
So 19.09. 17:2011987 %1017
1018
958
SO 3 (9)>= 10000Stark bewölkt (1200)
Wolkig (760)
Leicht bewölkt (120)
Regen (schwach)
Bern/Belp
505
So 19.09. 16:5012982 %1016
1017
957
SO 4 (11)>= 10000Stark bewölkt (2000)
Stark bewölkt (1400)
Nieselregen (schwach)

Altimeter: Einstellung am Altimeter (Höhenmesser), die Höhe 0 muss auf diesen Luftdruckwert zeigen, damit das Gerät die Stationshöhe richtig anzeigt.

NN: Luftdruck reduziert auf "Normal Null", auf Meereshöhe, dieser von der Temperatur abhängige Wert wird bisweilen unkorrekt einfach als "Luftdruck" bezeichnet. Eigentlich nur eine fiktive Größe, die es erlaubt, Stationen auf unterschiedlichen Höhen miteinander zu vergleichen.

Station: Realer Luftdruck an der Station.